createdAt,value
2023-04-29T00:02:26.117Z,17.49
2023-04-29T00:04:55.377Z,17.47
2023-04-29T00:07:23.927Z,17.49
2023-04-29T00:09:53.203Z,17.37
2023-04-29T00:12:21.679Z,17.60
2023-04-29T00:14:49.921Z,17.17
2023-04-29T00:17:19.540Z,17.88
2023-04-29T00:19:48.183Z,17.62
2023-04-29T00:22:16.472Z,17.29
2023-04-29T00:24:44.706Z,16.97
2023-04-29T00:27:13.720Z,17.41
2023-04-29T00:29:42.004Z,17.53
2023-04-29T00:32:10.302Z,17.28
2023-04-29T00:34:39.834Z,17.79
2023-04-29T00:37:08.064Z,17.70
2023-04-29T00:39:36.332Z,17.00
2023-04-29T00:42:04.776Z,17.43
2023-04-29T00:44:33.041Z,17.70
2023-04-29T00:47:01.250Z,17.79
2023-04-29T00:49:30.001Z,17.48
2023-04-29T00:52:00.571Z,18.38
2023-04-29T00:57:11.588Z,18.31
2023-04-29T00:59:39.997Z,17.69
2023-04-29T01:02:08.210Z,18.08
2023-04-29T01:10:56.186Z,18.86
2023-04-29T01:13:30.784Z,18.97
2023-04-29T01:16:03.646Z,18.28
2023-04-29T01:18:35.110Z,18.83
2023-04-29T01:21:03.658Z,18.64
2023-04-29T01:23:33.186Z,18.62
2023-04-29T01:26:01.472Z,18.48
2023-04-29T01:28:42.250Z,18.55
2023-04-29T01:31:17.218Z,19.18
2023-04-29T01:33:49.898Z,19.04
2023-04-29T01:36:24.372Z,19.18
2023-04-29T01:39:01.595Z,18.69
2023-04-29T01:41:37.195Z,19.09
2023-04-29T01:44:06.094Z,18.78
2023-04-29T01:46:34.542Z,18.43
2023-04-29T01:49:03.164Z,18.61
2023-04-29T01:51:32.208Z,18.23
2023-04-29T01:54:01.781Z,18.59
2023-04-29T01:56:29.948Z,18.59
2023-04-29T01:58:58.130Z,18.17
2023-04-29T02:01:26.337Z,18.33
2023-04-29T02:03:54.778Z,18.37
2023-04-29T02:06:24.579Z,17.64
2023-04-29T02:08:52.758Z,18.08
2023-04-29T02:11:22.432Z,18.08
2023-04-29T02:13:50.676Z,17.96
2023-04-29T02:16:19.052Z,18.04
2023-04-29T02:18:47.422Z,18.10
2023-04-29T02:21:15.878Z,17.21
2023-04-29T02:23:44.146Z,17.74
2023-04-29T02:26:14.009Z,17.42
2023-04-29T02:28:44.284Z,17.78
2023-04-29T02:31:12.543Z,17.43
2023-04-29T02:33:41.390Z,17.69
2023-04-29T02:36:09.711Z,17.53
2023-04-29T02:38:37.945Z,17.30
2023-04-29T02:41:06.405Z,17.31
2023-04-29T02:43:34.843Z,17.11
2023-04-29T02:46:04.831Z,17.73
2023-04-29T02:48:33.208Z,17.26
2023-04-29T02:51:01.449Z,17.39
2023-04-29T02:53:29.698Z,17.39
2023-04-29T02:55:58.251Z,16.76
2023-04-29T02:58:27.292Z,17.39
2023-04-29T03:00:55.609Z,16.99
2023-04-29T03:03:25.422Z,17.43
2023-04-29T03:05:53.718Z,16.95
2023-04-29T03:08:22.289Z,16.95
2023-04-29T03:10:50.553Z,16.64
2023-04-29T03:13:18.824Z,16.74
2023-04-29T03:15:47.271Z,16.41
2023-04-29T03:18:15.580Z,16.49
2023-04-29T03:20:45.229Z,16.79
2023-04-29T03:23:13.505Z,16.27
2023-04-29T03:25:41.783Z,16.25
2023-04-29T03:28:10.122Z,16.21
2023-04-29T03:30:38.406Z,16.33
2023-04-29T03:33:06.733Z,16.31
2023-04-29T03:35:35.064Z,16.31
2023-04-29T03:38:04.632Z,16.67
2023-04-29T03:40:32.904Z,16.43
2023-04-29T03:43:01.528Z,16.55
2023-04-29T03:45:29.807Z,16.81
2023-04-29T03:47:58.075Z,16.54
2023-04-29T03:50:26.641Z,16.45
2023-04-29T03:52:54.922Z,16.68
2023-04-29T03:55:24.512Z,16.87
2023-04-29T03:57:52.809Z,16.32
2023-04-29T04:00:21.732Z,16.37
2023-04-29T04:02:50.270Z,16.26
2023-04-29T04:05:19.555Z,16.25
2023-04-29T04:07:47.918Z,16.26
2023-04-29T04:10:16.294Z,16.18
2023-04-29T04:12:45.894Z,16.92
2023-04-29T04:15:14.265Z,16.28
2023-04-29T04:17:42.556Z,16.46
2023-04-29T04:20:11.830Z,16.57
2023-04-29T04:22:40.142Z,16.58
2023-04-29T04:25:09.740Z,17.07
2023-04-29T04:27:38.071Z,16.79
2023-04-29T04:30:09.317Z,17.46
2023-04-29T04:32:37.786Z,17.13
2023-04-29T04:35:07.053Z,17.37
2023-04-29T04:37:35.283Z,17.53
2023-04-29T04:40:03.666Z,17.69
2023-04-29T04:42:31.971Z,17.79
2023-04-29T04:45:00.259Z,18.09
2023-04-29T04:47:29.869Z,18.41
2023-04-29T04:49:58.162Z,18.52
2023-04-29T04:52:26.386Z,18.49
2023-04-29T04:54:54.625Z,18.10
2023-04-29T04:57:22.912Z,18.20
2023-04-29T04:59:51.419Z,18.19
2023-04-29T05:02:20.049Z,18.29
2023-04-29T05:04:49.745Z,18.49
2023-04-29T05:07:18.018Z,17.97
2023-04-29T05:09:46.266Z,18.39
2023-04-29T05:12:14.513Z,18.78
2023-04-29T05:14:42.775Z,19.05
2023-04-29T05:17:11.376Z,19.50
2023-04-29T05:19:39.632Z,19.31
2023-04-29T05:22:09.217Z,19.46
2023-04-29T05:24:37.469Z,19.19
2023-04-29T05:27:05.752Z,19.28
2023-04-29T05:29:34.009Z,18.94
2023-04-29T05:32:02.402Z,19.69
2023-04-29T05:34:30.962Z,19.28
2023-04-29T05:36:59.230Z,18.66
2023-04-29T05:39:28.849Z,19.44
2023-04-29T05:41:57.075Z,18.76
2023-04-29T05:44:25.401Z,18.60
2023-04-29T05:46:53.599Z,18.34
2023-04-29T05:49:21.874Z,18.29
2023-04-29T05:51:50.081Z,18.18
2023-04-29T05:54:18.331Z,18.10
2023-04-29T05:56:48.014Z,18.65
2023-04-29T05:59:16.267Z,18.06
2023-04-29T06:01:44.492Z,18.70
2023-04-29T06:04:13.059Z,18.57
2023-04-29T06:06:41.803Z,18.91
2023-04-29T06:09:19.912Z,19.19
2023-04-29T06:11:56.539Z,19.43
2023-04-29T06:14:25.023Z,19.54
2023-04-29T06:16:53.791Z,19.13
2023-04-29T06:19:22.219Z,18.78
2023-04-29T06:21:50.496Z,18.83
2023-04-29T06:24:18.771Z,18.97
2023-04-29T06:26:47.053Z,19.31
2023-04-29T06:29:16.653Z,19.75
2023-04-29T06:31:44.948Z,19.51
2023-04-29T06:34:13.856Z,19.58
2023-04-29T06:36:42.164Z,19.41
2023-04-29T06:39:10.633Z,19.52
2023-04-29T06:41:40.998Z,19.30
2023-04-29T06:44:09.240Z,19.33
2023-04-29T06:46:39.294Z,19.33
2023-04-29T06:49:07.831Z,19.75
2023-04-29T06:51:37.023Z,19.07
2023-04-29T06:54:05.499Z,18.86
2023-04-29T06:56:33.785Z,19.42
2023-04-29T06:59:02.051Z,19.58
2023-04-29T07:01:30.320Z,19.09
2023-04-29T07:04:00.250Z,19.03
2023-04-29T07:06:28.719Z,19.48
2023-04-29T07:08:57.194Z,19.58
2023-04-29T07:11:26.937Z,19.40
2023-04-29T07:13:55.303Z,19.82
2023-04-29T07:16:26.565Z,19.71
2023-04-29T07:18:55.027Z,19.39
2023-04-29T07:21:24.770Z,20.08
2023-04-29T07:23:53.714Z,19.55
2023-04-29T07:26:22.045Z,19.70
2023-04-29T07:28:50.373Z,20.90
2023-04-29T07:31:18.602Z,20.80
2023-04-29T07:33:47.480Z,21.55
2023-04-29T07:36:15.773Z,20.98
2023-04-29T07:38:45.418Z,21.85
2023-04-29T07:41:13.916Z,21.88
2023-04-29T07:43:42.593Z,22.62
2023-04-29T07:46:11.011Z,22.21
2023-04-29T07:48:40.124Z,22.35
2023-04-29T07:51:08.902Z,22.42
2023-04-29T07:53:37.205Z,21.25
2023-04-29T07:56:08.685Z,22.32
2023-04-29T07:58:37.098Z,22.23
2023-04-29T08:01:09.236Z,22.81
2023-04-29T08:03:40.525Z,22.24
2023-04-29T08:06:09.742Z,22.69
2023-04-29T08:08:38.079Z,22.15
2023-04-29T08:11:07.878Z,22.58
2023-04-29T08:13:36.093Z,23.65
2023-04-29T08:16:04.504Z,23.72
2023-04-29T08:18:32.754Z,23.82
2023-04-29T08:21:01.007Z,24.22
2023-04-29T08:23:29.417Z,23.60
2023-04-29T08:25:57.694Z,23.37
2023-04-29T08:28:27.697Z,23.64
2023-04-29T08:30:56.663Z,24.23
2023-04-29T08:33:25.060Z,23.77
2023-04-29T08:36:00.148Z,25.05
2023-04-29T08:38:28.514Z,25.16
2023-04-29T08:40:56.929Z,25.51
2023-04-29T08:43:25.228Z,24.58
2023-04-29T08:45:55.063Z,24.19
2023-04-29T08:48:23.438Z,24.21
2023-04-29T08:50:51.920Z,24.46
2023-04-29T08:53:20.296Z,23.38
2023-04-29T08:55:49.428Z,24.32
2023-04-29T08:58:17.725Z,23.31
2023-04-29T09:00:46.288Z,23.85
2023-04-29T09:03:21.665Z,22.64
2023-04-29T09:05:51.458Z,23.41
2023-04-29T09:08:21.201Z,23.09
2023-04-29T09:10:49.622Z,24.93
2023-04-29T09:13:25.408Z,24.74
2023-04-29T09:15:54.043Z,23.76
2023-04-29T09:18:45.888Z,23.80
2023-04-29T09:21:15.480Z,23.71
2023-04-29T09:23:43.806Z,23.25
2023-04-29T09:26:12.071Z,24.05
2023-04-29T09:28:43.640Z,23.64
2023-04-29T09:31:12.976Z,23.55
2023-04-29T09:33:55.962Z,24.41
2023-04-29T09:36:41.762Z,25.17
2023-04-29T09:39:12.590Z,25.16
2023-04-29T09:41:43.280Z,26.46
2023-04-29T09:44:11.794Z,25.94
2023-04-29T09:46:40.307Z,25.18
2023-04-29T09:49:26.120Z,24.23
2023-04-29T09:51:56.234Z,22.92
2023-04-29T09:54:25.752Z,23.80
2023-04-29T09:56:54.474Z,23.80
2023-04-29T09:59:23.640Z,22.98
2023-04-29T10:01:54.745Z,22.92
2023-04-29T10:04:25.833Z,23.32
2023-04-29T10:06:55.332Z,23.77
2023-04-29T10:09:24.851Z,24.10
2023-04-29T10:11:53.981Z,23.88
2023-04-29T10:14:24.337Z,24.34
2023-04-29T10:17:00.176Z,24.45
2023-04-29T10:19:35.423Z,24.29
2023-04-29T10:22:09.226Z,24.70
2023-04-29T10:24:38.998Z,24.04
2023-04-29T10:27:08.845Z,24.41
2023-04-29T10:29:38.767Z,24.86
2023-04-29T10:32:10.930Z,25.10
2023-04-29T10:34:40.702Z,25.58
2023-04-29T10:37:10.011Z,25.61
2023-04-29T10:39:44.084Z,24.34
2023-04-29T10:42:18.603Z,23.78
2023-04-29T10:45:32.832Z,23.98
2023-04-29T10:48:18.948Z,24.56
2023-04-29T10:51:04.387Z,24.91
2023-04-29T10:53:32.988Z,24.24
2023-04-29T10:56:09.616Z,24.31
2023-04-29T10:58:45.476Z,24.06
2023-04-29T11:01:15.848Z,24.76
2023-04-29T11:03:54.880Z,24.38
2023-04-29T11:06:26.650Z,23.63
2023-04-29T11:09:03.097Z,23.96
2023-04-29T11:12:03.474Z,23.96
2023-04-29T11:14:32.822Z,23.96
2023-04-29T11:17:02.812Z,23.37
2023-04-29T11:19:34.996Z,23.67
2023-04-29T11:22:17.755Z,24.43
2023-04-29T11:24:57.336Z,24.10
2023-04-29T11:27:27.305Z,24.31
2023-04-29T11:29:59.532Z,23.79
2023-04-29T11:32:28.787Z,23.77
2023-04-29T11:34:57.440Z,23.67
2023-04-29T11:37:27.908Z,24.23
2023-04-29T11:40:00.212Z,23.98
2023-04-29T11:42:28.661Z,25.34
2023-04-29T11:44:59.446Z,24.67
2023-04-29T11:47:29.541Z,24.34
2023-04-29T11:50:05.629Z,23.86
2023-04-29T11:52:37.276Z,24.84
2023-04-29T11:55:06.584Z,24.39
2023-04-29T11:57:34.852Z,24.86
2023-04-29T12:00:03.339Z,24.22
2023-04-29T12:02:32.769Z,25.05
2023-04-29T12:05:02.611Z,24.95
2023-04-29T12:07:31.319Z,24.77
2023-04-29T12:10:01.133Z,24.92
2023-04-29T12:12:31.531Z,25.38
2023-04-29T12:14:59.650Z,24.95
2023-04-29T12:17:28.036Z,25.17
2023-04-29T12:19:56.540Z,24.84
2023-04-29T12:22:24.803Z,25.06
2023-04-29T12:24:54.716Z,24.69
2023-04-29T12:27:25.138Z,24.62
2023-04-29T12:29:53.880Z,24.22
2023-04-29T12:32:24.880Z,25.09
2023-04-29T12:34:53.969Z,24.73
2023-04-29T12:37:23.645Z,25.41
2023-04-29T12:39:52.926Z,25.41
2023-04-29T12:42:21.174Z,24.41
2023-04-29T12:44:50.774Z,23.32
2023-04-29T12:47:19.090Z,24.30
2023-04-29T12:49:49.201Z,24.45
2023-04-29T12:52:17.547Z,24.62
2023-04-29T12:54:45.802Z,24.90
2023-04-29T12:57:14.410Z,25.01
2023-04-29T12:59:42.738Z,25.13
2023-04-29T13:02:12.563Z,24.44
2023-04-29T13:04:41.153Z,24.74
2023-04-29T13:07:13.136Z,25.02
2023-04-29T13:09:41.864Z,24.88
2023-04-29T13:12:10.257Z,25.31
2023-04-29T13:14:38.510Z,25.25
2023-04-29T13:17:06.937Z,25.13
2023-04-29T13:19:50.709Z,24.69
2023-04-29T13:22:20.295Z,24.49
2023-04-29T13:24:48.606Z,24.88
2023-04-29T13:27:16.995Z,24.35
2023-04-29T13:29:45.203Z,25.40
2023-04-29T13:32:13.618Z,24.70
2023-04-29T13:34:45.211Z,25.74
2023-04-29T13:37:13.561Z,25.42
2023-04-29T13:39:45.776Z,24.95
2023-04-29T13:42:15.963Z,25.38
2023-04-29T13:44:59.991Z,25.24
2023-04-29T13:47:30.418Z,25.23
2023-04-29T13:55:49.985Z,24.00
2023-04-29T14:01:01.387Z,25.21
2023-04-29T14:03:12.882Z,25.10
2023-04-29T14:05:43.137Z,25.20
2023-04-29T14:08:11.438Z,25.38
2023-04-29T14:10:39.609Z,24.95
2023-04-29T14:13:07.973Z,25.33
2023-04-29T14:15:36.313Z,25.18
2023-04-29T14:18:04.677Z,25.83
2023-04-29T14:20:32.932Z,26.16
2023-04-29T14:23:02.594Z,24.91
2023-04-29T14:25:31.672Z,24.71
2023-04-29T14:28:02.061Z,25.09
2023-04-29T14:30:30.468Z,24.84
2023-04-29T14:32:58.878Z,24.61
2023-04-29T14:35:27.208Z,24.82
2023-04-29T14:37:55.506Z,24.40
2023-04-29T14:40:25.664Z,24.75
2023-04-29T14:42:53.940Z,24.58
2023-04-29T14:45:22.182Z,25.08
2023-04-29T14:47:50.499Z,24.84
2023-04-29T14:50:18.838Z,25.57
2023-04-29T14:52:47.048Z,25.32
2023-04-29T14:55:15.662Z,25.00
2023-04-29T14:57:45.294Z,24.56
2023-04-29T15:00:15.084Z,24.53
2023-04-29T15:02:43.526Z,25.36
2023-04-29T15:05:11.989Z,24.95
2023-04-29T15:07:40.320Z,26.08
2023-04-29T15:10:10.041Z,25.48
2023-04-29T15:12:38.356Z,25.82
2023-04-29T15:15:09.935Z,24.71
2023-04-29T15:17:38.289Z,25.44
2023-04-29T15:20:08.369Z,24.79
2023-04-29T15:22:36.956Z,24.74
2023-04-29T15:25:05.913Z,24.91
2023-04-29T15:27:34.862Z,24.75
2023-04-29T15:30:03.165Z,24.76
2023-04-29T15:32:32.872Z,25.01
2023-04-29T15:35:01.565Z,24.59
2023-04-29T15:37:30.658Z,24.96
2023-04-29T15:40:00.424Z,24.50
2023-04-29T15:42:29.174Z,24.27
2023-04-29T15:44:57.712Z,24.20
2023-04-29T15:47:26.084Z,24.22
2023-04-29T15:49:56.685Z,24.20
2023-04-29T15:52:25.079Z,24.59
2023-04-29T15:54:53.357Z,24.43
2023-04-29T15:57:21.668Z,23.60
2023-04-29T15:59:49.900Z,24.14
2023-04-29T16:02:20.365Z,24.53
2023-04-29T16:04:48.467Z,24.05
2023-04-29T16:07:18.228Z,24.22
2023-04-29T16:09:46.616Z,24.45
2023-04-29T16:12:14.906Z,23.99
2023-04-29T16:14:43.206Z,24.04
2023-04-29T16:17:11.691Z,24.21
2023-04-29T16:19:40.306Z,24.84
2023-04-29T16:22:08.533Z,23.96
2023-04-29T16:24:38.296Z,23.72
2023-04-29T16:27:06.739Z,24.12
2023-04-29T16:29:35.135Z,24.09
2023-04-29T16:32:03.937Z,24.23
2023-04-29T16:34:32.252Z,24.04
2023-04-29T16:37:00.583Z,23.86
2023-04-29T16:39:29.020Z,24.34
2023-04-29T16:41:59.532Z,24.30
2023-04-29T16:44:27.891Z,24.68
2023-04-29T16:46:56.844Z,24.32
2023-04-29T16:49:26.690Z,24.60
2023-04-29T16:51:55.410Z,24.36
2023-04-29T16:54:23.837Z,23.81
2023-04-29T16:56:52.205Z,23.97
2023-04-29T16:59:21.904Z,23.96
2023-04-29T17:01:50.325Z,24.52
2023-04-29T17:04:20.050Z,23.63
2023-04-29T17:06:48.732Z,22.95
2023-04-29T17:09:17.791Z,22.59
2023-04-29T17:11:46.239Z,22.82
2023-04-29T17:14:15.097Z,23.13
2023-04-29T17:16:44.743Z,22.66
2023-04-29T17:19:12.977Z,22.80
2023-04-29T17:21:41.617Z,22.74
2023-04-29T17:24:09.937Z,23.55
2023-04-29T17:26:38.220Z,23.92
2023-04-29T17:29:06.498Z,24.08
2023-04-29T17:31:45.117Z,24.24
2023-04-29T17:34:19.711Z,24.22
2023-04-29T17:36:48.203Z,24.63
2023-04-29T17:39:16.580Z,24.98
2023-04-29T17:41:45.633Z,24.54
2023-04-29T17:44:13.928Z,24.48
2023-04-29T17:46:42.693Z,24.58
2023-04-29T17:49:11.492Z,23.61
2023-04-29T17:51:41.180Z,22.95
2023-04-29T17:54:10.295Z,23.27
2023-04-29T17:56:38.649Z,22.70
2023-04-29T17:59:08.006Z,23.42
2023-04-29T18:01:37.147Z,22.91
2023-04-29T18:04:06.059Z,22.90
2023-04-29T18:06:34.962Z,22.53
2023-04-29T18:09:05.308Z,22.16
2023-04-29T18:11:33.462Z,22.34
2023-04-29T18:14:01.641Z,22.18
2023-04-29T18:16:29.852Z,21.85
2023-04-29T18:18:58.148Z,22.13
2023-04-29T18:21:27.378Z,22.02
2023-04-29T18:23:56.021Z,21.62
2023-04-29T18:26:25.645Z,21.44
2023-04-29T18:28:53.899Z,21.55
2023-04-29T18:31:23.388Z,21.18
2023-04-29T18:33:51.790Z,21.29
2023-04-29T18:36:21.329Z,21.24
2023-04-29T18:38:49.727Z,21.27
2023-04-29T18:41:18.067Z,20.82
2023-04-29T18:43:47.699Z,20.79
2023-04-29T18:46:16.454Z,20.73
2023-04-29T18:48:44.765Z,20.65
2023-04-29T18:51:13.019Z,20.64
2023-04-29T18:53:41.380Z,20.97
2023-04-29T18:56:09.640Z,20.84
2023-04-29T18:58:37.863Z,21.05
2023-04-29T19:01:07.688Z,20.99
2023-04-29T19:03:35.977Z,20.84
2023-04-29T19:06:04.391Z,20.94
2023-04-29T19:08:32.698Z,20.91
2023-04-29T19:11:01.494Z,20.75
2023-04-29T19:13:29.749Z,20.81
2023-04-29T19:15:58.042Z,20.85
2023-04-29T19:18:28.014Z,20.83
2023-04-29T19:20:56.728Z,21.00
2023-04-29T19:23:24.975Z,21.13
2023-04-29T19:25:53.203Z,21.20
2023-04-29T19:28:21.518Z,21.29
2023-04-29T19:30:49.777Z,21.26
2023-04-29T19:33:18.058Z,21.45
2023-04-29T19:35:47.705Z,21.55
2023-04-29T19:38:16.004Z,21.50
2023-04-29T19:40:45.597Z,21.31
2023-04-29T19:43:13.934Z,21.08
2023-04-29T19:45:42.258Z,21.32
2023-04-29T19:48:10.734Z,21.10
2023-04-29T19:50:39.840Z,21.29
2023-04-29T19:53:09.494Z,21.54
2023-04-29T19:55:39.058Z,21.48
2023-04-29T19:58:07.582Z,21.44
2023-04-29T20:00:36.370Z,21.42
2023-04-29T20:03:04.960Z,21.45
2023-04-29T20:05:33.845Z,21.63
2023-04-29T20:08:02.105Z,21.63
2023-04-29T20:10:31.960Z,21.87
2023-04-29T20:13:01.076Z,21.92
2023-04-29T20:15:29.341Z,21.45
2023-04-29T20:17:58.224Z,21.80
2023-04-29T20:20:26.738Z,21.74
2023-04-29T20:22:58.120Z,21.46
2023-04-29T20:25:27.109Z,21.49
2023-04-29T20:27:57.489Z,21.31
2023-04-29T20:30:26.971Z,21.16
2023-04-29T20:32:55.377Z,21.39
2023-04-29T20:35:24.565Z,21.48
2023-04-29T20:37:52.781Z,21.43
2023-04-29T20:40:21.218Z,21.73
2023-04-29T20:42:49.491Z,21.79
2023-04-29T20:45:19.168Z,22.04
2023-04-29T20:47:47.508Z,22.20
2023-04-29T20:50:16.113Z,22.30
2023-04-29T20:52:44.404Z,21.94
2023-04-29T20:55:12.634Z,22.16
2023-04-29T20:57:40.927Z,21.97
2023-04-29T21:00:10.425Z,22.04
2023-04-29T21:02:40.183Z,21.71
2023-04-29T21:05:10.215Z,21.71
2023-04-29T21:07:38.628Z,21.52
2023-04-29T21:10:07.453Z,21.18
2023-04-29T21:12:35.846Z,21.02
2023-04-29T21:15:04.435Z,20.95
2023-04-29T21:17:32.799Z,20.73
2023-04-29T21:20:02.404Z,20.75
2023-04-29T21:22:30.696Z,20.14
2023-04-29T21:24:58.965Z,19.68
2023-04-29T21:27:27.195Z,19.76
2023-04-29T21:29:55.842Z,20.22
2023-04-29T21:32:24.491Z,19.67
2023-04-29T21:34:52.824Z,18.87
2023-04-29T21:37:22.478Z,19.51
2023-04-29T21:39:51.424Z,18.94
2023-04-29T21:42:23.154Z,19.19
2023-04-29T21:44:51.483Z,19.24
2023-04-29T21:47:19.812Z,19.16
2023-04-29T21:49:48.284Z,19.15
2023-04-29T21:52:16.557Z,18.86
2023-04-29T21:54:46.262Z,19.29
2023-04-29T21:57:14.495Z,18.63
2023-04-29T21:59:42.723Z,18.57
2023-04-29T22:02:22.088Z,18.69
2023-04-29T22:04:51.371Z,19.03
2023-04-29T22:07:20.301Z,19.11
2023-04-29T22:09:50.541Z,19.26
2023-04-29T22:12:18.977Z,19.03
2023-04-29T22:14:47.285Z,19.14
2023-04-29T22:17:15.729Z,19.38
2023-04-29T22:19:44.037Z,19.11
2023-04-29T22:22:12.265Z,18.88
2023-04-29T22:24:40.526Z,18.71
2023-04-29T22:27:10.101Z,19.48
2023-04-29T22:29:38.368Z,19.35
2023-04-29T22:32:06.676Z,19.19
2023-04-29T22:34:34.944Z,19.36
2023-04-29T22:37:03.194Z,19.35
2023-04-29T22:39:31.444Z,18.97
2023-04-29T22:41:59.710Z,19.30
2023-04-29T22:44:29.326Z,19.70
2023-04-29T22:46:57.935Z,19.43
2023-04-29T22:49:26.253Z,19.40
2023-04-29T22:51:54.479Z,19.02
2023-04-29T22:54:22.726Z,19.14
2023-04-29T22:56:51.007Z,18.95
2023-04-29T22:59:19.249Z,18.84
2023-04-29T23:01:48.814Z,19.31
2023-04-29T23:04:17.137Z,18.32
2023-04-29T23:06:45.492Z,18.27
2023-04-29T23:09:13.826Z,18.64
2023-04-29T23:11:42.188Z,19.10
2023-04-29T23:14:10.650Z,19.13
2023-04-29T23:16:38.950Z,18.99
2023-04-29T23:19:08.725Z,19.31
2023-04-29T23:21:37.007Z,18.89
2023-04-29T23:24:05.938Z,19.00
2023-04-29T23:26:34.145Z,18.92
2023-04-29T23:29:02.376Z,18.82
2023-04-29T23:31:30.632Z,18.77
2023-04-29T23:34:00.304Z,19.13
2023-04-29T23:36:29.973Z,19.18
2023-04-29T23:38:58.231Z,18.74
2023-04-29T23:41:26.475Z,18.87
2023-04-29T23:43:54.856Z,18.76
2023-04-29T23:46:23.164Z,18.74
2023-04-29T23:48:51.413Z,18.60
2023-04-29T23:51:19.634Z,18.49
2023-04-29T23:53:49.249Z,18.95
2023-04-29T23:56:17.515Z,19.38
2023-04-29T23:58:46.044Z,19.40
